Wind From: 23-09-2018 23:00 Until: 24-09-2018 22:59 warning for: Wind Level: Yellow info button

Nearby METAR Reports

 

ENZV - Stavanger
Updated: 23/09/2018 17:20
Nearby showers, partly cloudy
Nearby showers, partly cloudy
 Wind from NNW
Wind: NNW 30 km/h
Temperature: 10°C
Wind Chill: 7°C
Dew Point: 4°C
Humidity: 67%
Barometer: 1011 hPa
Summary: Nearby showers
Clouds: Partly cloudy
Visibility: 10 km
2018/09/23 15:20 ENZV 231520Z 33016KT 9999 VCSH FEW020CB SCT033 10/04 Q1011 TEMPO 31020G30KT 4000 SHRAGS BKN014CB
ENBR - Bergen
Updated: 23/09/2018 17:20
Nearby showers, mostly cloudy
Nearby showers, mostly cloudy
 Wind from N
Wind: N 19 km/h
Temperature: 7°C
Wind Chill: 4°C
Dew Point: 4°C
Humidity: 81%
Barometer: 1010 hPa
Summary: Nearby showers
Clouds: Mostly cloudy
Visibility: 10 km
2018/09/23 15:20 ENBR 231520Z 35010KT 9999 VCSH FEW015 FEW020CB SCT030 BKN040 07/04 Q1010 WS RWY35 TEMPO 32015G25KT 4000 SHRA BKN014CB RMK WIND 1200FT 33017G28KT
 
ENHD - Haugesund
Updated: 23/09/2018 17:20
Nearby showers, partly cloudy
Nearby showers, partly cloudy
 Wind from WNW
Wind: WNW 33 km/h
Temperature: 10°C
Wind Chill: 6°C
Dew Point: 3°C
Humidity: 62%
Barometer: 1011 hPa
Summary: Nearby showers
Clouds: Partly cloudy
Visibility: 10 km
2018/09/23 15:20 ENHD 231520Z 29018KT 9999 VCSH FEW025CB SCT040 10/03 Q1011
ENCN - Kristiansand
Updated: 23/09/2018 17:20
Clear
Clear
 Wind from NW
Wind: NW 22 km/h
Temperature: 13°C
Dew Point: 0°C
Humidity: 41%
Barometer: 1006 hPa
Summary: Clear
Visibility: greater than 10 km
2018/09/23 15:20 ENCN 231520Z 31012KT 280V340 CAVOK 13/M00 Q1006
 
ENBO - Bodø
Updated: 23/09/2018 17:20
Light rain, showers, mostly cloudy
Light rain, showers, mostly cloudy
 Wind from W
Wind: W 50 km/h
Temperature: 7°C
Wind Chill: 2°C
Dew Point: 4°C
Humidity: 81%
Barometer: 986 hPa
Summary: Light rain, showers
Clouds: Mostly cloudy
Visibility: 10 km
2018/09/23 15:20 ENBO 231520Z 28027KT 9999 -SHRA FEW015 SCT020 BKN030 07/04 Q0986 TEMPO 28030G40KT SHRA SCT008 BKN020CB
ENKR - Kirkenes
Updated: 23/09/2018 17:20
Light rain, showers, partly cloudy
Light rain, showers, partly cloudy
 Wind from SSW
Wind: SSW 26 km/h, Gust: 44 km/h
Temperature: 9°C
Wind Chill: 6°C
Dew Point: 5°C
Humidity: 76%
Barometer: 980 hPa
Summary: Light rain, showers
Clouds: Partly cloudy
Visibility: 10 km
2018/09/23 15:20 ENKR 231520Z 20014G24KT 9999 -SHRA FEW027 SCT039 09/05 Q0980 RMK WIND 731FT 20028G43KT
 
ENVA - Trondheim
Updated: 23/09/2018 17:20
Light rain, showers, mostly cloudy
Light rain, showers, mostly cloudy
 Wind from NW
Wind: NW 19 km/h
Temperature: 6°C
Wind Chill: 3°C
Dew Point: 4°C
Humidity: 87%
Barometer: 1002 hPa
Summary: Light rain, showers
Clouds: Mostly cloudy
Visibility: 10 km
2018/09/23 15:20 ENVA 231520Z 31010KT 250V340 9999 -SHRA FEW015CB SCT020 BKN024 06/04 Q1002 RMK WIND 670FT 27018KT
ENGM - Oslo
Updated: 23/09/2018 17:20
Nearby showers, mostly cloudy
Nearby showers, mostly cloudy
 Wind from NE
Wind: NE 9 km/h
Temperature: 10°C
Wind Chill: 9°C
Dew Point: 3°C
Humidity: 62%
Barometer: 1002 hPa
Summary: Nearby showers
Clouds: Mostly cloudy
Visibility: 10 km
2018/09/23 15:20 ENGM 231520Z 04005KT 010V070 9999 VCSH FEW030TCU SCT052 BKN070 10/03 Q1002 NOSIG